createdAt,value
2022-09-20T00:02:00.903Z,8.9
2022-09-20T00:03:00.955Z,8.7
2022-09-20T00:06:00.894Z,8.8
2022-09-20T00:07:00.944Z,8.9
2022-09-20T00:08:00.946Z,8.8
2022-09-20T00:10:00.889Z,8.7
2022-09-20T00:13:00.923Z,8.8
2022-09-20T00:15:00.893Z,8.9
2022-09-20T00:16:00.905Z,8.7
2022-09-20T00:17:00.967Z,8.9
2022-09-20T00:19:00.921Z,8.8
2022-09-20T00:21:00.895Z,8.9
2022-09-20T00:22:00.897Z,8.7
2022-09-20T00:24:00.920Z,8.8
2022-09-20T00:27:00.909Z,8.8
2022-09-20T00:29:00.889Z,8.9
2022-09-20T00:30:00.919Z,8.8
2022-09-20T00:40:00.949Z,8.7
2022-09-20T00:42:00.892Z,8.8
2022-09-20T00:43:00.911Z,8.7
2022-09-20T00:44:00.890Z,8.8
2022-09-20T00:45:00.891Z,8.9
2022-09-20T00:46:00.975Z,8.7
2022-09-20T00:49:01.063Z,8.8
2022-09-20T00:53:00.911Z,8.7
2022-09-20T00:54:00.912Z,8.8
2022-09-20T00:55:00.884Z,8.7
2022-09-20T00:58:00.883Z,8.8
2022-09-20T00:59:00.911Z,8.7
2022-09-20T01:00:00.890Z,8.6
2022-09-20T01:02:00.951Z,8.8
2022-09-20T01:04:00.938Z,8.9
2022-09-20T01:05:00.908Z,8.7
2022-09-20T01:07:00.897Z,8.8
2022-09-20T01:10:00.904Z,8.7
2022-09-20T01:11:00.888Z,8.8
2022-09-20T01:12:00.891Z,8.7
2022-09-20T01:14:00.896Z,8.6
2022-09-20T01:15:00.892Z,8.7
2022-09-20T01:17:00.952Z,8.7
2022-09-20T01:18:00.903Z,8.8
2022-09-20T01:19:00.915Z,8.6
2022-09-20T01:20:00.931Z,8.7
2022-09-20T01:21:00.909Z,8.6
2022-09-20T01:22:00.886Z,8.7
2022-09-20T01:23:00.889Z,8.8
2022-09-20T01:24:00.898Z,8.7
2022-09-20T01:26:00.914Z,8.6
2022-09-20T01:28:00.898Z,8.7
2022-09-20T01:29:00.926Z,8.6
2022-09-20T01:30:00.914Z,8.7
2022-09-20T01:31:00.936Z,8.9
2022-09-20T01:32:00.978Z,8.7
2022-09-20T01:34:00.934Z,8.6
2022-09-20T01:35:00.895Z,8.7
2022-09-20T01:39:00.923Z,8.8
2022-09-20T01:41:00.909Z,8.8
2022-09-20T01:43:00.877Z,8.6
2022-09-20T01:46:00.968Z,8.7
2022-09-20T01:47:00.890Z,8.6
2022-09-20T01:49:00.918Z,8.5
2022-09-20T01:51:00.891Z,8.6
2022-09-20T01:52:00.894Z,8.5
2022-09-20T01:54:00.904Z,8.6
2022-09-20T01:56:00.948Z,8.5
2022-09-20T02:02:00.936Z,8.6
2022-09-20T02:03:00.925Z,8.5
2022-09-20T02:05:00.952Z,8.4
2022-09-20T02:06:00.931Z,8.5
2022-09-20T02:08:00.901Z,8.6
2022-09-20T02:09:00.941Z,8.5
2022-09-20T02:11:00.925Z,8.5
2022-09-20T02:14:00.907Z,8.4
2022-09-20T02:15:00.893Z,8.5
2022-09-20T02:16:00.898Z,8.4
2022-09-20T02:17:00.962Z,8.5
2022-09-20T02:19:00.944Z,8.4
2022-09-20T02:21:00.891Z,8.5
2022-09-20T02:25:00.939Z,8.4
2022-09-20T02:27:00.899Z,8.5
2022-09-20T02:28:00.934Z,8.4
2022-09-20T02:30:00.948Z,8.4
2022-09-20T02:32:00.976Z,8.4
2022-09-20T02:34:00.947Z,8.5
2022-09-20T02:43:00.884Z,8.5
2022-09-20T02:44:00.900Z,8.4
2022-09-20T02:47:00.919Z,8.3
2022-09-20T02:48:00.903Z,8.4
2022-09-20T02:50:00.927Z,8.2
2022-09-20T02:51:00.980Z,8.3
2022-09-20T02:53:00.943Z,8.4
2022-09-20T02:56:00.910Z,8.3
2022-09-20T02:59:00.890Z,8.2
2022-09-20T03:00:00.915Z,8.3
2022-09-20T03:06:00.934Z,8.2
2022-09-20T03:11:00.913Z,8.4
2022-09-20T03:12:00.899Z,8.3
2022-09-20T03:16:00.911Z,8.4
2022-09-20T03:17:00.903Z,8.2
2022-09-20T03:18:00.904Z,8.3
2022-09-20T03:19:00.932Z,8.4
2022-09-20T03:20:00.975Z,8.3
2022-09-20T03:22:00.894Z,8.2
2022-09-20T03:24:00.898Z,8.2
2022-09-20T03:25:00.917Z,8.3
2022-09-20T03:27:00.950Z,8.2
2022-09-20T03:29:00.893Z,8.3
2022-09-20T03:30:00.887Z,8.2
2022-09-20T03:33:00.910Z,8.3
2022-09-20T03:36:00.902Z,8.1
2022-09-20T03:37:00.896Z,8.3
2022-09-20T03:39:00.914Z,8.2
2022-09-20T03:41:00.914Z,8.3
2022-09-20T03:43:00.908Z,8.2
2022-09-20T03:44:00.893Z,8.3
2022-09-20T03:47:00.959Z,8.2
2022-09-20T03:50:00.888Z,8.2
2022-09-20T03:51:00.896Z,8.1
2022-09-20T03:56:01.028Z,8.3
2022-09-20T03:57:00.892Z,8.2
2022-09-20T03:59:00.897Z,8.1
2022-09-20T04:00:00.909Z,8.2
2022-09-20T04:01:01.006Z,8.3
2022-09-20T04:04:00.911Z,8.2
2022-09-20T04:06:00.896Z,8.1
2022-09-20T04:07:00.892Z,8.2
2022-09-20T04:10:00.887Z,8.1
2022-09-20T04:11:00.908Z,8.3
2022-09-20T04:14:00.979Z,8.2
2022-09-20T04:16:00.912Z,8.3
2022-09-20T04:17:00.927Z,8.2
2022-09-20T04:20:00.886Z,8.1
2022-09-20T04:21:00.894Z,8.2
2022-09-20T04:22:00.894Z,8.1
2022-09-20T04:23:00.894Z,8.2
2022-09-20T04:25:00.909Z,8.1
2022-09-20T04:26:00.902Z,8.2
2022-09-20T04:27:00.934Z,8.1
2022-09-20T04:29:00.888Z,8.3
2022-09-20T04:30:00.934Z,8.2
2022-09-20T04:32:00.958Z,8.2
2022-09-20T04:34:00.924Z,8.1
2022-09-20T04:35:00.928Z,8.2
2022-09-20T04:37:00.896Z,8.2
2022-09-20T04:38:00.887Z,8.1
2022-09-20T04:39:00.904Z,8.2
2022-09-20T04:40:00.969Z,8.1
2022-09-20T04:41:00.953Z,8.3
2022-09-20T04:43:00.898Z,8.1
2022-09-20T04:45:00.939Z,8.2
2022-09-20T04:53:00.890Z,8.3
2022-09-20T04:54:00.950Z,8.1
2022-09-20T04:59:00.898Z,8.1
2022-09-20T05:01:01.015Z,8.2
2022-09-20T05:03:00.929Z,8.1
2022-09-20T05:04:00.931Z,8.2
2022-09-20T05:05:00.965Z,8.3
2022-09-20T05:09:00.957Z,8.2
2022-09-20T05:12:00.883Z,8.2
2022-09-20T05:13:00.915Z,8.1
2022-09-20T05:17:00.963Z,8.1
2022-09-20T05:20:00.911Z,8.1
2022-09-20T05:22:00.900Z,8
2022-09-20T05:23:00.912Z,7.9
2022-09-20T05:24:00.941Z,8
2022-09-20T05:25:00.936Z,7.9
2022-09-20T05:30:03.176Z,8.1
2022-09-20T05:31:00.915Z,8
2022-09-20T05:33:00.950Z,8
2022-09-20T05:36:00.910Z,8.1
2022-09-20T05:37:00.884Z,8
2022-09-20T05:38:00.895Z,7.9
2022-09-20T05:39:02.794Z,8
2022-09-20T05:43:00.892Z,8.1
2022-09-20T05:45:00.915Z,8.1
2022-09-20T05:50:00.901Z,8.2
2022-09-20T05:56:00.883Z,8.1
2022-09-20T05:57:00.878Z,8.2
2022-09-20T06:02:00.967Z,8.1
2022-09-20T06:03:00.932Z,8.2
2022-09-20T06:05:00.879Z,8.3
2022-09-20T06:07:00.954Z,8.2
2022-09-20T06:11:00.894Z,8.3
2022-09-20T06:13:00.920Z,8.3
2022-09-20T06:15:00.990Z,8.2
2022-09-20T06:18:00.930Z,8.3
2022-09-20T06:20:00.892Z,8.2
2022-09-20T06:21:00.958Z,8.1
2022-09-20T06:23:00.926Z,8.1
2022-09-20T06:25:00.924Z,8.2
2022-09-20T06:30:00.925Z,8.3
2022-09-20T06:31:00.978Z,8.4
2022-09-20T06:32:00.959Z,8.3
2022-09-20T06:34:00.906Z,8.3
2022-09-20T06:36:00.897Z,8.4
2022-09-20T06:38:00.953Z,8.5
2022-09-20T06:39:00.931Z,8.6
2022-09-20T06:41:00.890Z,8.5
2022-09-20T06:43:00.930Z,8.6
2022-09-20T06:45:00.939Z,8.6
2022-09-20T06:47:00.903Z,8.7
2022-09-20T06:48:00.909Z,8.5
2022-09-20T06:49:00.902Z,8.7
2022-09-20T06:50:00.916Z,8.9
2022-09-20T06:55:00.918Z,8.8
2022-09-20T06:56:00.899Z,8.9
2022-09-20T06:57:00.892Z,9
2022-09-20T06:58:00.891Z,8.9
2022-09-20T07:00:00.946Z,8.8
2022-09-20T07:04:00.907Z,8.8
2022-09-20T07:05:00.908Z,9
2022-09-20T07:06:00.888Z,9.1
2022-09-20T07:07:00.905Z,9.2
2022-09-20T07:10:00.904Z,9.3
2022-09-20T07:11:00.892Z,9.1
2022-09-20T07:15:00.900Z,9
2022-09-20T07:16:00.927Z,9.2
2022-09-20T07:17:00.926Z,9
2022-09-20T07:18:00.890Z,9.2
2022-09-20T07:21:00.970Z,9.1
2022-09-20T07:23:00.920Z,9.2
2022-09-20T07:27:00.932Z,9.3
2022-09-20T07:29:00.889Z,9.2
2022-09-20T07:30:00.905Z,9.3
2022-09-20T07:31:00.920Z,9.2
2022-09-20T07:33:00.941Z,9.4
2022-09-20T07:35:00.894Z,9.5
2022-09-20T07:36:00.922Z,9.6
2022-09-20T07:37:00.927Z,9.8
2022-09-20T07:40:00.921Z,9.8
2022-09-20T07:41:00.886Z,9.7
2022-09-20T07:43:00.892Z,9.8
2022-09-20T07:48:00.901Z,9.7
2022-09-20T07:50:00.895Z,9.6
2022-09-20T07:51:00.934Z,9.7
2022-09-20T07:52:00.937Z,9.5
2022-09-20T07:53:00.951Z,9.6
2022-09-20T07:54:00.911Z,9.4
2022-09-20T07:56:00.968Z,9.4
2022-09-20T07:58:00.902Z,9.3
2022-09-20T08:02:00.907Z,9.2
2022-09-20T08:08:00.975Z,9.3
2022-09-20T08:10:00.907Z,9.4
2022-09-20T08:11:00.917Z,9.3
2022-09-20T08:14:05.682Z,9.5
2022-09-20T08:17:00.912Z,9.6
2022-09-20T08:19:00.909Z,9.7
2022-09-20T08:20:00.885Z,9.8
2022-09-20T08:21:00.883Z,9.9
2022-09-20T08:22:00.898Z,10.1
2022-09-20T08:24:00.903Z,10.1
2022-09-20T08:26:00.886Z,10.2
2022-09-20T08:27:00.894Z,10.3
2022-09-20T08:28:00.898Z,10.1
2022-09-20T08:29:00.971Z,10.2
2022-09-20T08:31:00.901Z,10.2
2022-09-20T08:32:00.914Z,10.3
2022-09-20T08:33:00.990Z,10.4
2022-09-20T08:35:00.902Z,10.3
2022-09-20T08:37:00.884Z,10.4
2022-09-20T08:39:57.024Z,10.3
2022-09-20T08:40:01.024Z,10.3
2022-09-20T08:41:00.902Z,10.2
2022-09-20T08:42:00.893Z,10.1
2022-09-20T08:44:00.897Z,10.1
2022-09-20T08:46:05.369Z,10.2
2022-09-20T08:50:01.469Z,10.4
2022-09-20T08:55:01.266Z,10.3
2022-09-20T08:57:00.900Z,10.2
2022-09-20T08:58:02.961Z,10.4
2022-09-20T08:59:00.930Z,10.3
2022-09-20T09:02:00.899Z,10.1
2022-09-20T09:04:00.891Z,10.1
2022-09-20T09:05:00.930Z,10.2
2022-09-20T09:07:00.894Z,10
2022-09-20T09:08:00.907Z,10.2
2022-09-20T09:10:00.954Z,10.3
2022-09-20T09:12:00.888Z,10.3
2022-09-20T09:13:00.897Z,10.2
2022-09-20T09:21:00.911Z,10.1
2022-09-20T09:27:00.910Z,10.2
2022-09-20T09:29:00.891Z,10.1
2022-09-20T09:31:00.887Z,10.2
2022-09-20T09:32:00.975Z,10
2022-09-20T09:33:00.907Z,10.1
2022-09-20T09:35:00.905Z,10.2
2022-09-20T09:39:00.917Z,10.2
2022-09-20T09:43:00.903Z,10.3
2022-09-20T09:45:00.903Z,10.4
2022-09-20T09:46:01.028Z,10.3
2022-09-20T09:48:00.937Z,10.3
2022-09-20T09:50:03.884Z,10.2
2022-09-20T09:51:00.887Z,10.1
2022-09-20T09:53:00.910Z,10.3
2022-09-20T09:54:00.896Z,10.1
2022-09-20T09:58:00.898Z,10.2
2022-09-20T09:59:00.903Z,10.3
2022-09-20T10:01:00.933Z,10.1
2022-09-20T10:02:00.956Z,10.3
2022-09-20T10:04:00.893Z,10.3
2022-09-20T10:08:00.905Z,10.4
2022-09-20T10:09:00.948Z,10.3
2022-09-20T10:17:00.894Z,10.5
2022-09-20T10:18:00.889Z,10.7
2022-09-20T10:19:00.898Z,10.6
2022-09-20T10:20:00.907Z,10.8
2022-09-20T10:22:00.882Z,10.9
2022-09-20T10:23:30.365Z,10.7
2022-09-20T10:25:00.886Z,10.9
2022-09-20T10:28:00.890Z,11.1
2022-09-20T10:29:00.916Z,11.2
2022-09-20T10:30:00.911Z,11.1
2022-09-20T10:32:00.897Z,11.2
2022-09-20T10:33:01.007Z,11.1
2022-09-20T10:36:00.949Z,11.5
2022-09-20T10:38:00.892Z,11.6
2022-09-20T10:40:00.963Z,11.7
2022-09-20T10:41:00.946Z,11.8
2022-09-20T10:42:00.893Z,11.9
2022-09-20T10:44:05.029Z,12.1
2022-09-20T10:45:00.893Z,12.2
2022-09-20T10:48:00.904Z,12.1
2022-09-20T10:49:00.941Z,12
2022-09-20T10:51:00.941Z,11.9
2022-09-20T10:52:00.918Z,11.8
2022-09-20T10:54:00.891Z,11.7
2022-09-20T10:55:00.899Z,11.8
2022-09-20T10:56:00.943Z,11.7
2022-09-20T10:57:00.958Z,11.6
2022-09-20T10:59:00.909Z,11.5
2022-09-20T11:02:00.932Z,11.7
2022-09-20T11:04:00.890Z,11.9
2022-09-20T11:05:00.902Z,12.2
2022-09-20T11:07:00.926Z,12.4
2022-09-20T11:08:00.906Z,12.7
2022-09-20T11:10:00.968Z,12.8
2022-09-20T11:11:00.901Z,13
2022-09-20T11:13:00.907Z,13.1
2022-09-20T11:15:00.886Z,12.8
2022-09-20T11:16:00.892Z,12.9
2022-09-20T11:18:00.939Z,12.8
2022-09-20T11:20:04.837Z,12.6
2022-09-20T11:22:00.930Z,12.5
2022-09-20T11:25:00.890Z,12.4
2022-09-20T11:28:00.888Z,12.5
2022-09-20T11:29:00.896Z,12.6
2022-09-20T11:32:00.971Z,12.7
2022-09-20T11:34:00.908Z,12.9
2022-09-20T11:35:00.889Z,13.1
2022-09-20T11:36:00.901Z,13.3
2022-09-20T11:38:00.883Z,13.5
2022-09-20T11:39:00.907Z,13.8
2022-09-20T11:40:00.976Z,13.9
2022-09-20T11:41:00.888Z,14
2022-09-20T11:42:00.889Z,14.1
2022-09-20T11:43:00.895Z,14.2
2022-09-20T11:44:00.909Z,14.4
2022-09-20T11:45:00.884Z,14.5
2022-09-20T11:46:00.974Z,14.6
2022-09-20T11:49:00.911Z,14.8
2022-09-20T11:50:00.888Z,14.6
2022-09-20T11:51:00.906Z,14.8
2022-09-20T11:52:00.887Z,14.9
2022-09-20T11:53:00.901Z,15.1
2022-09-20T11:55:00.889Z,15.2
2022-09-20T11:57:00.898Z,15
2022-09-20T11:58:00.897Z,15.1
2022-09-20T11:59:00.890Z,15
2022-09-20T12:01:00.913Z,14.9
2022-09-20T12:02:00.952Z,14.7
2022-09-20T12:03:00.992Z,14.5
2022-09-20T12:04:20.916Z,14.3
2022-09-20T12:06:00.890Z,14
2022-09-20T12:07:03.464Z,13.7
2022-09-20T12:08:00.887Z,13.6
2022-09-20T12:09:00.884Z,13.4
2022-09-20T12:10:00.899Z,13.2
2022-09-20T12:12:00.887Z,13.1
2022-09-20T12:13:00.933Z,13
2022-09-20T12:15:00.884Z,12.9
2022-09-20T12:16:00.930Z,12.7
2022-09-20T12:18:02.632Z,12.6
2022-09-20T12:19:00.888Z,12.5
2022-09-20T12:20:00.901Z,12.4
2022-09-20T12:21:00.987Z,12.3
2022-09-20T12:23:00.899Z,12.1
2022-09-20T12:26:00.895Z,12.1
2022-09-20T12:27:00.887Z,12
2022-09-20T12:29:00.907Z,12.2
2022-09-20T12:30:00.896Z,12.1
2022-09-20T12:31:00.939Z,12.2
2022-09-20T12:32:00.993Z,12.4
2022-09-20T12:35:00.894Z,12.6
2022-09-20T12:36:00.889Z,12.8
2022-09-20T12:38:00.886Z,13.1
2022-09-20T12:41:00.907Z,13.5
2022-09-20T12:42:00.888Z,13.4
2022-09-20T12:44:00.930Z,13.6
2022-09-20T12:47:00.893Z,13.5
2022-09-20T12:49:00.891Z,13.6
2022-09-20T12:50:00.887Z,13.7
2022-09-20T12:52:00.904Z,13.8
2022-09-20T12:53:00.890Z,13.7
2022-09-20T12:55:03.902Z,13.5
2022-09-20T12:56:00.893Z,13.4
2022-09-20T12:57:00.908Z,13.5
2022-09-20T13:00:00.883Z,13.6
2022-09-20T13:02:00.930Z,13.5
2022-09-20T13:03:00.889Z,13.6
2022-09-20T13:04:00.892Z,13.8
2022-09-20T13:06:00.899Z,13.9
2022-09-20T13:07:00.956Z,14
2022-09-20T13:09:00.882Z,14.1
2022-09-20T13:11:00.904Z,14
2022-09-20T13:13:00.911Z,13.8
2022-09-20T13:14:00.894Z,13.7
2022-09-20T13:15:00.937Z,13.6
2022-09-20T13:16:00.968Z,13.7
2022-09-20T13:17:00.909Z,13.5
2022-09-20T13:18:00.908Z,13.4
2022-09-20T13:19:01.042Z,13.5
2022-09-20T13:21:00.891Z,13.5
2022-09-20T13:22:00.889Z,13.6
2022-09-20T13:24:00.893Z,13.7
2022-09-20T13:28:00.897Z,13.5
2022-09-20T13:30:00.899Z,13.6
2022-09-20T13:32:00.919Z,13.7
2022-09-20T13:33:00.894Z,13.9
2022-09-20T13:38:00.882Z,14
2022-09-20T13:40:00.907Z,14.1
2022-09-20T13:42:00.886Z,14.3
2022-09-20T13:43:19.857Z,14.2
2022-09-20T13:45:00.936Z,14.3
2022-09-20T13:47:00.920Z,14.4
2022-09-20T13:48:00.911Z,14.5
2022-09-20T13:49:00.899Z,14.7
2022-09-20T13:50:00.933Z,14.6
2022-09-20T13:52:00.887Z,14.7
2022-09-20T13:54:00.883Z,14.8
2022-09-20T13:55:00.899Z,14.7
2022-09-20T13:59:00.900Z,14.6
2022-09-20T14:00:00.892Z,14.3
2022-09-20T14:02:00.989Z,14.2
2022-09-20T14:04:00.957Z,14.1
2022-09-20T14:06:00.931Z,14.2
2022-09-20T14:07:00.894Z,14.1
2022-09-20T14:08:00.896Z,14
2022-09-20T14:10:00.920Z,14.1
2022-09-20T14:11:00.891Z,14
2022-09-20T14:14:00.890Z,13.9
2022-09-20T14:15:00.913Z,14
2022-09-20T14:16:00.897Z,13.8
2022-09-20T14:18:00.891Z,13.7
2022-09-20T14:19:00.902Z,13.9
2022-09-20T14:21:00.913Z,13.7
2022-09-20T14:24:01.053Z,13.6
2022-09-20T14:26:00.971Z,13.5
2022-09-20T14:27:00.907Z,13.4
2022-09-20T14:31:00.919Z,13.2
2022-09-20T14:32:00.900Z,13.3
2022-09-20T14:34:00.927Z,13.1
2022-09-20T14:37:00.918Z,12.9
2022-09-20T14:38:00.895Z,13
2022-09-20T14:39:00.896Z,13.1
2022-09-20T14:41:00.924Z,13.2
2022-09-20T14:42:00.901Z,13.1
2022-09-20T14:43:00.882Z,13
2022-09-20T14:44:00.896Z,13.1
2022-09-20T14:47:00.913Z,13
2022-09-20T14:48:00.899Z,12.9
2022-09-20T14:50:00.989Z,13
2022-09-20T14:55:00.903Z,12.7
2022-09-20T14:56:00.883Z,12.8
2022-09-20T14:57:00.891Z,12.6
2022-09-20T14:58:00.890Z,12.7
2022-09-20T14:59:00.897Z,12.8
2022-09-20T15:00:00.920Z,12.6
2022-09-20T15:01:00.926Z,12.8
2022-09-20T15:05:00.888Z,12.7
2022-09-20T15:08:00.893Z,12.6
2022-09-20T15:10:00.889Z,12.4
2022-09-20T15:11:00.890Z,12.5
2022-09-20T15:13:00.999Z,12.2
2022-09-20T15:14:00.916Z,12.4
2022-09-20T15:16:00.931Z,12.6
2022-09-20T15:17:00.890Z,12.4
2022-09-20T15:18:00.885Z,12.5
2022-09-20T15:19:00.894Z,12.6
2022-09-20T15:20:00.942Z,12.5
2022-09-20T15:22:00.882Z,12.6
2022-09-20T15:26:00.901Z,12.4
2022-09-20T15:27:00.919Z,12.5
2022-09-20T15:29:00.905Z,12.5
2022-09-20T15:30:00.898Z,12.6
2022-09-20T15:31:00.907Z,12.7
2022-09-20T15:35:00.932Z,12.5
2022-09-20T15:37:00.926Z,12.5
2022-09-20T15:40:00.929Z,12.5
2022-09-20T15:41:00.901Z,12.4
2022-09-20T15:45:00.880Z,12.3
2022-09-20T15:47:00.919Z,12.4
2022-09-20T15:48:00.897Z,12.3
2022-09-20T15:51:00.928Z,12.4
2022-09-20T15:53:00.887Z,12.4
2022-09-20T15:55:00.887Z,12.4
2022-09-20T15:57:00.906Z,12.3
2022-09-20T16:00:00.925Z,12.2
2022-09-20T16:03:00.939Z,12.3
2022-09-20T16:04:00.909Z,12.2
2022-09-20T16:05:00.896Z,12.1
2022-09-20T16:08:00.889Z,12
2022-09-20T16:10:00.882Z,12
2022-09-20T16:11:00.897Z,11.9
2022-09-20T16:14:00.915Z,12.1
2022-09-20T16:16:00.888Z,12
2022-09-20T16:17:00.950Z,11.8
2022-09-20T16:19:00.984Z,12
2022-09-20T16:25:00.893Z,11.8
2022-09-20T16:27:00.885Z,11.7
2022-09-20T16:28:00.880Z,12.1
2022-09-20T16:29:00.896Z,12
2022-09-20T16:30:00.896Z,11.9
2022-09-20T16:33:00.891Z,12.2
2022-09-20T16:34:00.931Z,12
2022-09-20T16:36:00.945Z,12.2
2022-09-20T16:37:00.946Z,12.1
2022-09-20T16:38:00.921Z,12.2
2022-09-20T16:39:00.919Z,12.1
2022-09-20T16:40:00.961Z,12.2
2022-09-20T16:42:00.970Z,12.1
2022-09-20T16:45:00.946Z,12
2022-09-20T16:47:00.914Z,11.9
2022-09-20T16:48:02.102Z,11.8
2022-09-20T16:51:00.921Z,11.5
2022-09-20T16:52:00.911Z,11.4
2022-09-20T16:53:00.919Z,11.5
2022-09-20T16:55:00.919Z,11.2
2022-09-20T16:57:00.935Z,11
2022-09-20T16:58:00.910Z,10.9
2022-09-20T17:01:00.926Z,10.8
2022-09-20T17:02:00.934Z,10.7
2022-09-20T17:04:01.002Z,10.6
2022-09-20T17:06:00.937Z,10.5
2022-09-20T17:08:00.951Z,10.3
2022-09-20T17:13:00.927Z,10.1
2022-09-20T17:15:00.942Z,10.2
2022-09-20T17:16:00.967Z,10.1
2022-09-20T17:17:00.936Z,9.9
2022-09-20T17:19:00.934Z,10
2022-09-20T17:20:00.949Z,9.8
2022-09-20T17:21:01.084Z,10
2022-09-20T17:24:00.966Z,9.8
2022-09-20T17:26:01.030Z,9.9
2022-09-20T17:28:00.924Z,9.8
2022-09-20T17:30:00.912Z,9.9
2022-09-20T17:34:00.916Z,9.7
2022-09-20T17:35:00.890Z,9.8
2022-09-20T17:36:00.965Z,9.7
2022-09-20T17:38:00.891Z,9.6
2022-09-20T17:39:04.066Z,9.5
2022-09-20T17:41:00.950Z,9.6
2022-09-20T17:43:00.921Z,9.5
2022-09-20T17:45:00.890Z,9.4
2022-09-20T17:46:00.898Z,9.3
2022-09-20T17:49:00.915Z,9.2
2022-09-20T17:51:00.932Z,9.1
2022-09-20T17:52:00.929Z,9
2022-09-20T17:53:00.951Z,9.1
2022-09-20T17:55:00.904Z,8.9
2022-09-20T17:56:00.931Z,8.8
2022-09-20T17:57:00.916Z,9
2022-09-20T17:58:00.939Z,8.7
2022-09-20T18:00:00.920Z,8.6
2022-09-20T18:02:00.918Z,8.5
2022-09-20T18:03:04.682Z,8.6
2022-09-20T18:04:00.900Z,8.5
2022-09-20T18:08:00.952Z,8.4
2022-09-20T18:10:00.930Z,8.3
2022-09-20T18:12:00.911Z,8.2
2022-09-20T18:14:00.939Z,8.3
2022-09-20T18:15:00.898Z,8.4
2022-09-20T18:16:00.929Z,8.3
2022-09-20T18:17:01.344Z,8.2
2022-09-20T18:19:00.928Z,8.3
2022-09-20T18:20:00.920Z,8.2
2022-09-20T18:22:00.921Z,8.1
2022-09-20T18:24:00.922Z,8.2
2022-09-20T18:25:00.929Z,8
2022-09-20T18:27:01.208Z,8.2
2022-09-20T18:33:00.925Z,7.8
2022-09-20T18:34:00.926Z,7.7
2022-09-20T18:35:00.938Z,7.8
2022-09-20T18:37:00.911Z,7.7
2022-09-20T18:38:00.938Z,7.6
2022-09-20T18:39:00.921Z,7.7
2022-09-20T18:40:00.963Z,7.6
2022-09-20T18:42:00.927Z,7.6
2022-09-20T18:46:00.957Z,7.4
2022-09-20T18:47:00.982Z,7.5
2022-09-20T18:49:00.943Z,7.5
2022-09-20T18:52:00.896Z,7.4
2022-09-20T18:53:00.941Z,7.3
2022-09-20T18:55:00.925Z,7.5
2022-09-20T18:56:00.908Z,7.3
2022-09-20T18:58:01.709Z,7.2
2022-09-20T19:02:00.946Z,7.2
2022-09-20T19:04:00.954Z,7.3
2022-09-20T19:08:00.945Z,7.3
2022-09-20T19:10:00.979Z,7.2
2022-09-20T19:14:00.893Z,7.1
2022-09-20T19:15:00.890Z,7
2022-09-20T19:16:00.953Z,7.2
2022-09-20T19:18:00.905Z,7.2
2022-09-20T19:19:01.912Z,7
2022-09-20T19:23:00.914Z,7.1
2022-09-20T19:24:03.217Z,7
2022-09-20T19:27:00.933Z,6.9
2022-09-20T19:33:00.910Z,7
2022-09-20T19:34:00.902Z,6.8
2022-09-20T19:35:00.955Z,6.9
2022-09-20T19:37:00.887Z,6.9
2022-09-20T19:38:00.887Z,6.8
2022-09-20T19:40:01.085Z,6.9
2022-09-20T19:44:00.913Z,6.8
2022-09-20T19:45:00.906Z,6.9
2022-09-20T19:47:01.856Z,7
2022-09-20T19:48:00.896Z,6.8
2022-09-20T19:51:00.895Z,6.9
2022-09-20T19:52:00.940Z,7
2022-09-20T19:56:00.908Z,7
2022-09-20T19:57:00.902Z,6.8
2022-09-20T19:58:00.888Z,7
2022-09-20T20:00:00.905Z,6.9
2022-09-20T20:01:00.902Z,7.1
2022-09-20T20:02:00.916Z,6.9
2022-09-20T20:03:00.903Z,7
2022-09-20T20:06:03.387Z,6.8
2022-09-20T20:07:00.909Z,6.9
2022-09-20T20:09:00.895Z,6.9
2022-09-20T20:10:00.967Z,7
2022-09-20T20:13:00.917Z,6.9
2022-09-20T20:14:00.903Z,6.8
2022-09-20T20:17:00.914Z,6.9
2022-09-20T20:18:00.940Z,6.8
2022-09-20T20:20:00.916Z,6.7
2022-09-20T20:22:00.918Z,6.9
2022-09-20T20:23:00.899Z,6.8
2022-09-20T20:28:00.926Z,6.7
2022-09-20T20:33:00.902Z,6.9
2022-09-20T20:34:00.905Z,6.8
2022-09-20T20:40:00.956Z,6.9
2022-09-20T20:41:00.884Z,6.8
2022-09-20T20:43:00.892Z,6.7
2022-09-20T20:44:00.892Z,6.8
2022-09-20T20:45:00.909Z,6.7
2022-09-20T20:46:00.927Z,6.9
2022-09-20T20:47:00.887Z,6.8
2022-09-20T20:50:00.902Z,6.7
2022-09-20T20:52:00.891Z,6.8
2022-09-20T20:54:00.926Z,6.7
2022-09-20T21:00:01.054Z,6.8
2022-09-20T21:01:00.911Z,6.6
2022-09-20T21:04:00.898Z,6.7
2022-09-20T21:06:00.907Z,6.6
2022-09-20T21:07:00.909Z,6.7
2022-09-20T21:09:00.916Z,6.6
2022-09-20T21:13:00.904Z,6.6
2022-09-20T21:14:00.910Z,6.7
2022-09-20T21:15:00.906Z,6.6
2022-09-20T21:19:00.943Z,6.7
2022-09-20T21:22:00.908Z,6.5
2022-09-20T21:23:00.897Z,6.6
2022-09-20T21:24:00.895Z,6.5
2022-09-20T21:25:00.888Z,6.7
2022-09-20T21:26:00.971Z,6.5
2022-09-20T21:28:00.924Z,6.6
2022-09-20T21:30:00.911Z,6.5
2022-09-20T21:32:00.933Z,6.6
2022-09-20T21:36:00.960Z,6.6
2022-09-20T21:37:00.903Z,6.5
2022-09-20T21:39:00.927Z,6.7
2022-09-20T21:42:00.898Z,6.6
2022-09-20T21:43:00.890Z,6.5
2022-09-20T21:44:00.893Z,6.4
2022-09-20T21:45:00.888Z,6.5
2022-09-20T21:47:00.922Z,6.4
2022-09-20T21:48:00.892Z,6.5
2022-09-20T21:51:00.925Z,6.4
2022-09-20T21:53:00.918Z,6.4
2022-09-20T21:55:00.928Z,6.5
2022-09-20T21:57:00.914Z,6.6
2022-09-20T21:58:00.892Z,6.5
2022-09-20T22:02:00.919Z,6.4
2022-09-20T22:05:00.886Z,6.5
2022-09-20T22:09:00.908Z,6.4
2022-09-20T22:11:00.913Z,6.6
2022-09-20T22:12:00.916Z,6.5
2022-09-20T22:14:00.912Z,6.6
2022-09-20T22:16:01.089Z,6.6
2022-09-20T22:24:00.908Z,6.5
2022-09-20T22:25:00.888Z,6.6
2022-09-20T22:27:00.916Z,6.7
2022-09-20T22:28:00.892Z,6.6
2022-09-20T22:30:04.735Z,6.5
2022-09-20T22:34:01.151Z,6.7
2022-09-20T22:35:01.067Z,6.6
2022-09-20T22:38:00.974Z,6.6
2022-09-20T22:47:01.014Z,6.7
2022-09-20T22:50:00.898Z,6.8
2022-09-20T22:52:00.976Z,6.7
2022-09-20T22:53:01.009Z,6.8
2022-09-20T22:56:00.887Z,6.9
2022-09-20T22:57:00.916Z,7
2022-09-20T22:58:00.913Z,6.8
2022-09-20T22:59:00.922Z,6.9
2022-09-20T23:00:00.975Z,6.8
2022-09-20T23:02:00.905Z,6.9
2022-09-20T23:04:00.959Z,7
2022-09-20T23:09:00.924Z,7.1
2022-09-20T23:11:00.931Z,7
2022-09-20T23:13:01.031Z,7.1
2022-09-20T23:17:00.967Z,7.2
2022-09-20T23:25:00.955Z,7.3
2022-09-20T23:26:00.946Z,7.2
2022-09-20T23:28:00.972Z,7.4
2022-09-20T23:29:00.958Z,7.3
2022-09-20T23:31:00.938Z,7.4
2022-09-20T23:32:00.939Z,7.5
2022-09-20T23:33:01.061Z,7.4
2022-09-20T23:35:00.950Z,7.4
2022-09-20T23:37:00.991Z,7.5
2022-09-20T23:39:01.007Z,7.4
2022-09-20T23:41:00.969Z,7.4
2022-09-20T23:42:00.947Z,7.5
2022-09-20T23:44:00.901Z,7.5
2022-09-20T23:46:00.945Z,7.4
2022-09-20T23:50:00.906Z,7.5
2022-09-20T23:51:00.905Z,7.4
2022-09-20T23:57:00.977Z,7.4
2022-09-20T23:59:00.929Z,7.4
